createdAt,value
2018-11-28T00:08:33.262Z,42
2018-11-28T00:18:36.671Z,42
2018-11-28T00:28:40.059Z,41
2018-11-28T00:38:43.446Z,42
2018-11-28T00:48:47.879Z,43
2018-11-28T00:58:51.289Z,45
2018-11-28T01:08:54.695Z,43
2018-11-28T01:18:58.131Z,42
2018-11-28T01:29:01.537Z,41
2018-11-28T01:39:04.973Z,41
2018-11-28T01:49:08.407Z,41
2018-11-28T01:59:11.869Z,41
2018-11-28T02:09:15.265Z,41
2018-11-28T02:19:18.665Z,41
2018-11-28T02:29:22.054Z,41
2018-11-28T02:39:25.476Z,41
2018-11-28T02:49:28.906Z,41
2018-11-28T02:59:32.338Z,40
2018-11-28T03:09:35.743Z,41
2018-11-28T03:19:39.151Z,42
2018-11-28T03:29:42.589Z,41
2018-11-28T03:39:46.027Z,41
2018-11-28T03:49:49.439Z,41
2018-11-28T03:59:52.870Z,40
2018-11-28T04:09:56.262Z,41
2018-11-28T04:19:59.699Z,41
2018-11-28T04:30:03.123Z,41
2018-11-28T04:40:07.629Z,41
2018-11-28T04:50:11.071Z,41
2018-11-28T05:00:14.616Z,40
2018-11-28T05:10:18.056Z,40
2018-11-28T05:20:21.494Z,42
2018-11-28T05:30:24.921Z,42
2018-11-28T05:40:28.315Z,42
2018-11-28T05:50:31.732Z,42
2018-11-28T06:00:35.176Z,40
2018-11-28T06:10:38.620Z,42
2018-11-28T06:20:43.046Z,41
2018-11-28T06:30:46.485Z,42
2018-11-28T06:40:49.938Z,41
2018-11-28T06:50:53.360Z,42
2018-11-28T07:00:56.802Z,43
2018-11-28T07:11:00.254Z,46
2018-11-28T07:21:03.683Z,45
2018-11-28T07:31:07.114Z,46
2018-11-28T07:41:10.533Z,46
2018-11-28T07:51:13.953Z,45
2018-11-28T08:01:17.371Z,45
2018-11-28T08:11:20.806Z,45
2018-11-28T08:21:24.229Z,43
2018-11-28T08:31:27.653Z,42
2018-11-28T08:41:31.078Z,41
2018-11-28T08:51:34.594Z,41
2018-11-28T09:01:38.096Z,42
2018-11-28T09:11:41.493Z,41
2018-11-28T09:21:44.933Z,43
2018-11-28T09:31:48.340Z,49
2018-11-28T09:41:51.779Z,45
2018-11-28T09:51:55.205Z,42
2018-11-28T10:01:58.734Z,42
2018-11-28T10:12:02.134Z,43
2018-11-28T10:22:05.536Z,42
2018-11-28T10:32:08.931Z,42
2018-11-28T10:42:12.340Z,41
2018-11-28T10:52:15.742Z,41
2018-11-28T11:02:19.143Z,41
2018-11-28T11:12:22.561Z,42
2018-11-28T11:22:25.985Z,42
2018-11-28T11:32:29.404Z,42
2018-11-28T11:42:32.823Z,41
2018-11-28T11:52:36.283Z,42
2018-11-28T12:02:39.745Z,42
2018-11-28T12:12:43.197Z,41
2018-11-28T12:22:46.661Z,41
2018-11-28T12:32:50.079Z,41
2018-11-28T12:42:53.522Z,41
2018-11-28T12:52:56.959Z,42
2018-11-28T13:03:00.353Z,41
2018-11-28T13:13:03.793Z,42
2018-11-28T13:23:07.251Z,41
2018-11-28T13:33:10.699Z,41
2018-11-28T13:43:14.128Z,40
2018-11-28T13:53:17.586Z,41
2018-11-28T14:03:21.025Z,41
2018-11-28T14:13:24.468Z,41
2018-11-28T14:23:27.897Z,40
2018-11-28T14:33:31.346Z,40
2018-11-28T14:43:34.804Z,40
2018-11-28T14:53:38.451Z,40
2018-11-28T15:03:41.953Z,40
2018-11-28T15:13:45.385Z,41
2018-11-28T15:23:48.815Z,41
2018-11-28T15:33:52.246Z,40
2018-11-28T15:43:55.664Z,41
2018-11-28T15:53:59.077Z,41
2018-11-28T16:04:02.484Z,41
2018-11-28T16:14:05.908Z,41
2018-11-28T16:24:09.338Z,43
2018-11-28T16:34:12.773Z,45
2018-11-28T16:44:16.324Z,43
2018-11-28T16:54:19.778Z,44
2018-11-28T17:04:23.218Z,44
2018-11-28T17:14:26.861Z,47
2018-11-28T17:24:30.273Z,45
2018-11-28T17:34:33.706Z,46
2018-11-28T17:44:37.132Z,46
2018-11-28T17:54:40.573Z,45
2018-11-28T18:04:44.014Z,48
2018-11-28T18:14:47.458Z,47
2018-11-28T18:24:50.883Z,44
2018-11-28T18:34:54.325Z,44
2018-11-28T18:44:57.789Z,44
2018-11-28T18:55:01.246Z,44
2018-11-28T19:05:04.786Z,44
2018-11-28T19:15:08.306Z,43
2018-11-28T19:25:11.747Z,46
2018-11-28T19:35:15.228Z,44
2018-11-28T19:45:18.668Z,45
2018-11-28T19:55:22.113Z,43
2018-11-28T20:05:25.581Z,43
2018-11-28T20:15:29.050Z,42
2018-11-28T20:25:32.474Z,44
2018-11-28T20:35:35.909Z,45
2018-11-28T20:45:39.352Z,43
2018-11-28T20:55:42.799Z,42
2018-11-28T21:05:46.244Z,42
2018-11-28T21:15:49.688Z,42
2018-11-28T21:25:53.111Z,43
2018-11-28T21:35:56.532Z,42
2018-11-28T21:45:59.933Z,44
2018-11-28T21:56:03.363Z,43
2018-11-28T22:06:06.769Z,44
2018-11-28T22:16:10.203Z,42
2018-11-28T22:26:13.612Z,42
2018-11-28T22:36:17.036Z,43
2018-11-28T22:46:20.459Z,43
2018-11-28T23:06:32.174Z,42
2018-11-28T23:16:35.616Z,42
2018-11-28T23:26:39.063Z,41
2018-11-28T23:36:42.507Z,43
2018-11-28T23:46:45.959Z,42
2018-11-28T23:56:49.372Z,42
